Brandon, United Kingdom
Current Conditions -  °F | °C
As of 4:58 PM on Thursday 30 Oct 2014 (Local Time) from EGUL Reporting Station
Clear Clear  
Wind Chill: 61°   Ceiling: Unl
Heat Index: 61°   Visibility: 6mi
Dew Point: 61°   Wind: 5mph
Humidity: 100%   Direction: 150°SSE
Pressure: 30.05"   Gusts: NA
Location:  52.45°N, 0.63°E
Report Text: EGUL 301658Z AUTO 15004KT 9999 CLR 16/16 A3005 RMK AO2 SLP179 T01590159
Loading
Personal Weather Stations






























Interactive Weather Map
Tropical Storm Tracking
New forecast layout! Learn more

10-Day Weather Forecast

Advertisements
Track Severe Weather on mobile